Terminal Aerodrome Forecast
Issued by NWS

Home | Current Version | Previous Version | Text Only | Print | Product List | Glossary On
Versions: 1 2 3 4 5 6 7 8 9 10 11 12 13 14 15 16 17 18 19 20 21
000
FTUS43 KDLH 250535
TAFBRD
TAF
KBRD 250535Z 2506/2606 34013KT P6SM SCT028
      TEMPO 2506/2508 BKN028
     FM251000 32010KT P6SM SCT035
     FM251800 27010KT P6SM VCSH SCT025 BKN050
     FM260200 27007KT 4SM -SN OVC025=

USA.gov is the U.S. government's official web portal to all federal, state and local government web resources and services.